createdAt,value
2023-01-30T00:01:01.105Z,99154.69
2023-01-30T00:03:28.371Z,99158.84
2023-01-30T00:05:55.149Z,99162.00
2023-01-30T00:08:22.913Z,99160.16
2023-01-30T00:10:50.013Z,99160.16
2023-01-30T00:13:17.280Z,99151.84
2023-01-30T00:15:45.069Z,99146.84
2023-01-30T00:18:12.473Z,99149.84
2023-01-30T00:20:39.638Z,99141.19
2023-01-30T00:23:06.777Z,99143.19
2023-01-30T00:25:33.968Z,99137.88
2023-01-30T00:28:02.235Z,99133.88
2023-01-30T00:30:30.871Z,99131.19
2023-01-30T00:32:59.160Z,99127.00
2023-01-30T00:35:29.011Z,99125.53
2023-01-30T00:37:58.349Z,99122.72
2023-01-30T00:40:27.189Z,99121.38
2023-01-30T00:43:13.872Z,99127.88
2023-01-30T00:46:02.162Z,99123.22
2023-01-30T00:48:29.631Z,99119.88
2023-01-30T00:50:56.764Z,99125.34
2023-01-30T00:53:24.257Z,99118.03
2023-01-30T00:55:52.670Z,99120.00
2023-01-30T00:58:20.665Z,99120.69
2023-01-30T01:00:47.578Z,99121.84
2023-01-30T01:03:15.106Z,99122.19
2023-01-30T01:05:43.628Z,99116.19
2023-01-30T01:08:11.589Z,99124.50
2023-01-30T01:10:38.838Z,99114.03
2023-01-30T01:13:07.041Z,99121.50
2023-01-30T01:15:34.733Z,99120.62
2023-01-30T01:18:01.839Z,99115.47
2023-01-30T01:20:29.003Z,99111.97
2023-01-30T01:22:57.643Z,99102.84
2023-01-30T01:25:25.792Z,99098.84
2023-01-30T01:27:54.707Z,99086.87
2023-01-30T01:30:22.142Z,99093.84
2023-01-30T01:32:49.253Z,99088.19
2023-01-30T01:35:16.411Z,99085.38
2023-01-30T01:37:44.054Z,99088.03
2023-01-30T01:40:36.485Z,99080.03
2023-01-30T01:43:17.349Z,99082.19
2023-01-30T01:45:45.145Z,99084.19
2023-01-30T01:48:21.829Z,99069.38
2023-01-30T01:50:51.640Z,99070.56
2023-01-30T01:53:22.064Z,99063.56
2023-01-30T01:55:52.506Z,99060.88
2023-01-30T01:58:37.687Z,99061.38
2023-01-30T02:01:06.212Z,99053.53
2023-01-30T02:03:37.745Z,99051.03
2023-01-30T02:06:05.186Z,99047.03
2023-01-30T02:08:40.173Z,99037.25
2023-01-30T02:11:13.000Z,99034.75
2023-01-30T02:13:40.528Z,99038.06
2023-01-30T02:16:09.233Z,99030.25
2023-01-30T02:18:39.269Z,99028.22
2023-01-30T02:21:32.322Z,99023.44
2023-01-30T02:24:20.809Z,99026.72
2023-01-30T02:26:57.401Z,99023.22
2023-01-30T02:29:31.471Z,99017.56
2023-01-30T02:32:29.397Z,99018.22
2023-01-30T02:35:37.894Z,99015.72
2023-01-30T02:38:32.907Z,99005.75
2023-01-30T02:41:10.755Z,99007.91
2023-01-30T02:43:40.212Z,98993.28
2023-01-30T02:46:14.235Z,98993.94
2023-01-30T02:48:49.201Z,98996.22
2023-01-30T02:51:44.293Z,98985.75
2023-01-30T02:54:13.237Z,98985.94
2023-01-30T02:56:50.117Z,98989.41
2023-01-30T02:59:22.316Z,98977.44
2023-01-30T03:02:07.742Z,98967.62
2023-01-30T03:04:43.868Z,98966.63
2023-01-30T03:07:21.849Z,98972.63
2023-01-30T03:10:02.503Z,98978.78
2023-01-30T03:12:38.254Z,98966.97
2023-01-30T03:15:22.707Z,98968.28
2023-01-30T03:17:50.213Z,98959.59
2023-01-30T03:20:20.539Z,98964.56
2023-01-30T03:22:47.893Z,98958.09
2023-01-30T03:25:20.525Z,98948.28
2023-01-30T03:27:50.367Z,98951.78
2023-01-30T03:30:18.038Z,98945.78
2023-01-30T03:32:44.813Z,98939.16
2023-01-30T03:35:13.048Z,98937.81
2023-01-30T03:37:40.237Z,98931.00
2023-01-30T03:40:08.117Z,98929.00
2023-01-30T03:42:35.318Z,98925.19
2023-01-30T03:45:02.145Z,98915.19
2023-01-30T03:47:29.610Z,98916.00
2023-01-30T03:49:57.463Z,98917.34
2023-01-30T03:52:24.696Z,98915.50
2023-01-30T03:54:52.193Z,98920.31
2023-01-30T03:57:19.277Z,98918.97
2023-01-30T03:59:46.430Z,98909.50
2023-01-30T04:02:15.142Z,98902.22
2023-01-30T04:04:41.931Z,98901.53
2023-01-30T04:07:09.029Z,98892.75
2023-01-30T04:09:36.160Z,98887.59
2023-01-30T04:12:03.295Z,98884.09
2023-01-30T04:14:30.757Z,98880.44
2023-01-30T04:16:57.950Z,98877.28
2023-01-30T04:19:24.969Z,98885.25
2023-01-30T04:21:52.082Z,98883.75
2023-01-30T04:24:19.245Z,98870.09
2023-01-30T04:26:46.204Z,98860.31
2023-01-30T04:29:14.587Z,98856.00
2023-01-30T04:31:41.682Z,98855.16
2023-01-30T04:34:09.207Z,98849.34
2023-01-30T04:36:37.067Z,98841.53
2023-01-30T04:39:04.518Z,98839.38
2023-01-30T04:41:31.941Z,98839.38
2023-01-30T04:43:58.732Z,98842.34
2023-01-30T04:46:25.843Z,98837.19
2023-01-30T04:48:53.262Z,98827.75
2023-01-30T04:51:20.406Z,98819.25
2023-01-30T04:53:47.163Z,98822.88
2023-01-30T04:56:14.574Z,98827.06
2023-01-30T04:58:41.340Z,98830.69
2023-01-30T05:01:17.466Z,98820.22
2023-01-30T05:03:44.621Z,98814.63
2023-01-30T05:06:12.059Z,98810.16
2023-01-30T05:08:38.834Z,98817.94
2023-01-30T05:11:05.725Z,98813.63
2023-01-30T05:13:33.552Z,98807.78
2023-01-30T05:16:00.358Z,98802.63
2023-01-30T05:18:27.511Z,98801.97
2023-01-30T05:20:55.928Z,98807.94
2023-01-30T05:23:23.009Z,98801.47
2023-01-30T05:25:50.106Z,98793.69
2023-01-30T05:28:17.199Z,98797.03
2023-01-30T05:30:46.328Z,98785.56
2023-01-30T05:33:14.169Z,98786.72
2023-01-30T05:35:50.421Z,98781.41
2023-01-30T05:38:17.254Z,98785.06
2023-01-30T05:40:44.687Z,98775.25
2023-01-30T05:43:11.504Z,98777.41
2023-01-30T05:45:38.920Z,98778.56
2023-01-30T05:48:06.696Z,98772.94
2023-01-30T05:50:33.866Z,98768.94
2023-01-30T05:53:00.922Z,98768.94
2023-01-30T05:55:28.049Z,98763.97
2023-01-30T05:57:55.163Z,98768.59
2023-01-30T06:00:22.739Z,98768.94
2023-01-30T06:02:49.890Z,98770.91
2023-01-30T06:05:17.109Z,98769.53
2023-01-30T06:07:44.910Z,98765.59
2023-01-30T06:10:12.264Z,98774.22
2023-01-30T06:12:39.346Z,98769.25
2023-01-30T06:15:06.943Z,98769.75
2023-01-30T06:17:34.040Z,98774.06
2023-01-30T06:20:00.922Z,98763.12
2023-01-30T06:22:28.363Z,98770.78
2023-01-30T06:24:55.135Z,98763.47
2023-01-30T06:27:22.568Z,98756.19
2023-01-30T06:29:49.332Z,98761.50
2023-01-30T06:32:16.443Z,98766.97
2023-01-30T06:34:43.569Z,98765.97
2023-01-30T06:37:10.424Z,98763.31
2023-01-30T06:39:37.551Z,98761.31
2023-01-30T06:42:05.048Z,98766.31
2023-01-30T06:44:32.612Z,98758.50
2023-01-30T06:46:59.380Z,98748.22
2023-01-30T06:49:26.843Z,98749.56
2023-01-30T06:51:53.633Z,98739.59
2023-01-30T06:54:20.444Z,98745.59
2023-01-30T06:56:47.881Z,98755.22
2023-01-30T06:59:15.227Z,98758.56
2023-01-30T07:01:42.030Z,98765.38
2023-01-30T07:04:09.693Z,98772.34
2023-01-30T07:06:36.539Z,98785.12
2023-01-30T07:09:03.637Z,98783.78
2023-01-30T07:11:31.637Z,98787.63
2023-01-30T07:13:59.149Z,98783.66
2023-01-30T07:16:29.778Z,98766.75
2023-01-30T07:18:58.948Z,98759.09
2023-01-30T07:21:26.052Z,98750.16
2023-01-30T07:23:53.006Z,98762.44
2023-01-30T07:26:20.459Z,98763.59
2023-01-30T07:28:47.604Z,98760.78
2023-01-30T07:31:14.375Z,98754.81
2023-01-30T07:33:41.886Z,98743.34
2023-01-30T07:36:09.104Z,98739.34
2023-01-30T07:38:36.231Z,98744.88
2023-01-30T07:41:03.410Z,98726.09
2023-01-30T07:43:30.533Z,98709.97
2023-01-30T07:45:57.969Z,98715.63
2023-01-30T07:48:24.809Z,98709.12
2023-01-30T07:50:57.152Z,98695.53
2023-01-30T07:53:24.615Z,98693.38
2023-01-30T07:55:51.568Z,98701.53
2023-01-30T07:58:18.762Z,98709.31
2023-01-30T08:00:46.021Z,98697.50
2023-01-30T08:03:17.465Z,98704.31
2023-01-30T08:05:47.827Z,98696.81
2023-01-30T08:08:15.141Z,98704.47
2023-01-30T08:10:42.787Z,98699.00
2023-01-30T08:13:10.446Z,98708.78
2023-01-30T08:15:37.600Z,98703.16
2023-01-30T08:18:04.807Z,98711.44
2023-01-30T08:20:31.796Z,98706.41
2023-01-30T08:22:59.979Z,98715.56
2023-01-30T08:25:27.074Z,98713.56
2023-01-30T08:27:53.933Z,98705.06
2023-01-30T08:30:22.807Z,98698.37
2023-01-30T08:32:50.326Z,98701.34
2023-01-30T08:35:17.565Z,98693.03
2023-01-30T08:37:44.748Z,98696.88
2023-01-30T08:40:12.524Z,98698.53
2023-01-30T08:42:40.019Z,98701.81
2023-01-30T08:45:07.868Z,98693.66
2023-01-30T08:47:35.694Z,98698.47
2023-01-30T08:50:04.564Z,98689.31
2023-01-30T08:52:34.767Z,98681.97
2023-01-30T08:55:01.627Z,98686.81
2023-01-30T08:57:29.403Z,98688.78
2023-01-30T08:59:56.545Z,98688.13
2023-01-30T09:02:23.830Z,98683.16
2023-01-30T09:04:50.953Z,98689.28
2023-01-30T09:07:17.866Z,98689.94
2023-01-30T09:09:44.963Z,98671.97
2023-01-30T09:12:12.076Z,98670.59
2023-01-30T09:14:39.637Z,98670.06
2023-01-30T09:17:07.153Z,98672.56
2023-01-30T09:19:37.150Z,98671.56
2023-01-30T09:22:04.340Z,98676.53
2023-01-30T09:24:31.537Z,98673.00
2023-01-30T09:26:59.344Z,98674.25
2023-01-30T09:29:27.514Z,98675.72
2023-01-30T09:31:56.956Z,98665.22
2023-01-30T09:34:28.910Z,98651.53
2023-01-30T09:37:05.095Z,98655.84
2023-01-30T09:39:32.164Z,98650.94
2023-01-30T09:42:05.462Z,98648.22
2023-01-30T09:44:44.502Z,98648.50
2023-01-30T09:47:14.555Z,98653.28
2023-01-30T09:50:06.765Z,98650.91
2023-01-30T09:52:59.411Z,98639.88
2023-01-30T09:55:34.257Z,98643.69
2023-01-30T09:58:01.724Z,98644.78
2023-01-30T10:00:35.457Z,98642.59
2023-01-30T10:03:11.783Z,98638.34
2023-01-30T10:05:47.625Z,98641.50
2023-01-30T10:08:45.570Z,98636.63
2023-01-30T10:11:24.872Z,98625.62
2023-01-30T10:14:05.608Z,98625.06
2023-01-30T10:16:32.941Z,98631.69
2023-01-30T10:19:34.751Z,98630.28
2023-01-30T10:22:25.223Z,98623.75
2023-01-30T10:25:03.406Z,98617.72
2023-01-30T10:27:33.736Z,98607.50
2023-01-30T10:30:05.322Z,98607.75
2023-01-30T10:32:44.615Z,98594.69
2023-01-30T10:35:20.356Z,98592.09
2023-01-30T10:38:13.501Z,98576.19
2023-01-30T10:40:54.602Z,98569.06
2023-01-30T10:43:44.629Z,98559.47
2023-01-30T10:46:34.446Z,98549.53
2023-01-30T10:49:06.788Z,98537.06
2023-01-30T10:51:59.789Z,98535.66
2023-01-30T10:54:40.943Z,98529.56
2023-01-30T10:57:30.208Z,98519.31
2023-01-30T11:00:13.370Z,98510.94
2023-01-30T11:02:52.942Z,98521.06
2023-01-30T11:05:24.946Z,98508.13
2023-01-30T11:07:52.913Z,98500.75
2023-01-30T11:10:25.156Z,98497.69
2023-01-30T11:13:00.919Z,98497.31
2023-01-30T11:15:46.131Z,98492.78
2023-01-30T11:18:50.954Z,98483.56
2023-01-30T11:21:19.737Z,98482.34
2023-01-30T11:23:47.205Z,98475.81
2023-01-30T11:26:47.103Z,98464.72
2023-01-30T11:29:35.531Z,98456.13
2023-01-30T11:32:15.869Z,98450.59
2023-01-30T11:34:44.562Z,98442.81
2023-01-30T11:37:32.046Z,98428.84
2023-01-30T11:39:59.868Z,98429.09
2023-01-30T11:42:31.882Z,98440.03
2023-01-30T11:45:16.282Z,98430.78
2023-01-30T11:48:04.936Z,98423.00
2023-01-30T11:50:49.954Z,98418.91
2023-01-30T11:53:17.621Z,98417.47
2023-01-30T11:56:00.376Z,98404.56
2023-01-30T11:58:33.419Z,98395.31
2023-01-30T12:01:01.350Z,98387.72
2023-01-30T12:03:29.601Z,98384.44
2023-01-30T12:05:59.338Z,98377.44
2023-01-30T12:08:46.702Z,98379.09
2023-01-30T12:11:29.946Z,98371.53
2023-01-30T12:14:08.806Z,98372.97
2023-01-30T12:17:04.855Z,98379.16
2023-01-30T12:19:37.602Z,98362.69
2023-01-30T12:22:18.740Z,98354.47
2023-01-30T12:24:59.618Z,98359.41
2023-01-30T12:28:06.008Z,98349.75
2023-01-30T12:30:43.555Z,98349.13
2023-01-30T12:33:15.811Z,98341.53
2023-01-30T12:35:52.191Z,98330.22
2023-01-30T12:38:57.779Z,98325.91
2023-01-30T12:41:49.577Z,98297.69
2023-01-30T12:44:51.279Z,98302.44
2023-01-30T12:47:33.555Z,98294.19
2023-01-30T12:50:19.133Z,98302.66
2023-01-30T12:53:01.738Z,98285.56
2023-01-30T12:55:38.036Z,98283.31
2023-01-30T12:58:17.394Z,98279.37
2023-01-30T13:00:59.633Z,98271.97
2023-01-30T13:03:35.881Z,98270.94
2023-01-30T13:06:06.123Z,98266.19
2023-01-30T13:08:51.773Z,98264.75
2023-01-30T13:11:41.445Z,98251.56
2023-01-30T13:14:11.525Z,98245.59
2023-01-30T13:16:58.223Z,98230.53
2023-01-30T13:19:51.501Z,98236.31
2023-01-30T13:22:35.635Z,98251.16
2023-01-30T13:25:21.294Z,98260.84
2023-01-30T13:28:00.652Z,98240.84
2023-01-30T13:30:29.562Z,98245.56
2023-01-30T13:33:07.135Z,98241.22
2023-01-30T13:35:46.005Z,98230.09
2023-01-30T13:38:23.111Z,98220.59
2023-01-30T13:40:54.011Z,98215.06
2023-01-30T13:43:26.110Z,98204.94
2023-01-30T13:45:57.203Z,98216.06
2023-01-30T13:48:57.942Z,98203.28
2023-01-30T13:51:37.298Z,98212.53
2023-01-30T13:54:07.067Z,98203.03
2023-01-30T13:56:47.696Z,98198.06
2023-01-30T13:59:48.222Z,98194.97
2023-01-30T14:02:24.309Z,98208.78
2023-01-30T14:04:55.621Z,98216.38
2023-01-30T14:07:32.495Z,98204.41
2023-01-30T14:10:08.957Z,98204.00
2023-01-30T14:12:40.674Z,98213.47
2023-01-30T14:15:13.917Z,98206.03
2023-01-30T14:18:02.732Z,98198.38
2023-01-30T14:20:33.660Z,98208.88
2023-01-30T14:23:19.337Z,98202.28
2023-01-30T14:25:50.386Z,98221.47
2023-01-30T14:28:17.442Z,98223.69
2023-01-30T14:30:44.176Z,98215.00
2023-01-30T14:33:23.755Z,98228.59
2023-01-30T14:36:02.671Z,98235.44
2023-01-30T14:38:35.102Z,98243.88
2023-01-30T14:41:02.179Z,98248.19
2023-01-30T14:43:35.712Z,98251.03
2023-01-30T14:46:19.384Z,98268.16
2023-01-30T14:48:53.684Z,98272.09
2023-01-30T14:51:25.770Z,98256.19
2023-01-30T14:54:10.983Z,98267.50
2023-01-30T14:57:03.066Z,98280.50
2023-01-30T14:59:40.558Z,98280.06
2023-01-30T15:02:13.625Z,98276.13
2023-01-30T15:05:02.125Z,98276.50
2023-01-30T15:07:47.613Z,98279.81
2023-01-30T15:10:56.345Z,98286.63
2023-01-30T15:13:56.080Z,98289.69
2023-01-30T15:16:42.408Z,98294.03
2023-01-30T15:19:09.189Z,98309.69
2023-01-30T15:22:16.933Z,98308.66
2023-01-30T15:24:56.181Z,98308.44
2023-01-30T15:27:34.451Z,98308.22
2023-01-30T15:30:48.860Z,98306.34
2023-01-30T15:33:29.358Z,98299.94
2023-01-30T15:35:57.147Z,98297.28
2023-01-30T15:38:35.105Z,98297.06
2023-01-30T15:41:04.409Z,98298.69
2023-01-30T15:43:47.048Z,98292.28
2023-01-30T15:46:26.749Z,98285.06
2023-01-30T15:49:09.723Z,98281.34
2023-01-30T15:51:37.014Z,98278.66
2023-01-30T15:54:10.876Z,98273.28
2023-01-30T15:56:40.231Z,98265.00
2023-01-30T15:59:08.151Z,98277.41
2023-01-30T16:01:35.722Z,98281.13
2023-01-30T16:04:08.303Z,98280.06
2023-01-30T16:06:37.999Z,98289.78
2023-01-30T16:09:24.895Z,98299.69
2023-01-30T16:11:53.157Z,98308.56
2023-01-30T16:14:22.195Z,98307.56
2023-01-30T16:16:52.550Z,98314.78
2023-01-30T16:19:32.465Z,98317.47
2023-01-30T16:22:03.459Z,98329.84
2023-01-30T16:24:33.311Z,98333.34
2023-01-30T16:27:05.260Z,98340.59
2023-01-30T16:29:43.368Z,98354.19
2023-01-30T16:32:14.859Z,98361.25
2023-01-30T16:34:42.188Z,98344.31
2023-01-30T16:37:18.488Z,98328.22
2023-01-30T16:40:03.766Z,98343.06
2023-01-30T16:42:31.343Z,98366.41
2023-01-30T16:45:21.670Z,98355.72
2023-01-30T16:47:49.486Z,98353.38
2023-01-30T16:50:22.790Z,98349.25
2023-01-30T16:52:56.341Z,98354.19
2023-01-30T16:55:27.061Z,98367.88
2023-01-30T16:58:00.143Z,98368.66
2023-01-30T17:00:40.560Z,98368.47
2023-01-30T17:03:22.476Z,98381.91
2023-01-30T17:05:49.832Z,98382.09
2023-01-30T17:08:55.622Z,98388.09
2023-01-30T17:11:42.169Z,98386.00
2023-01-30T17:14:09.965Z,98372.38
2023-01-30T17:16:39.299Z,98373.62
2023-01-30T17:19:07.057Z,98374.84
2023-01-30T17:21:49.039Z,98395.50
2023-01-30T17:24:20.113Z,98383.72
2023-01-30T17:26:51.785Z,98411.59
2023-01-30T17:29:41.049Z,98410.78
2023-01-30T17:32:12.321Z,98412.62
2023-01-30T17:34:41.493Z,98426.28
2023-01-30T17:37:16.343Z,98400.47
2023-01-30T17:39:43.982Z,98428.34
2023-01-30T17:42:18.242Z,98442.59
2023-01-30T17:44:47.077Z,98435.56
2023-01-30T17:47:15.039Z,98442.19
2023-01-30T17:49:44.463Z,98447.13
2023-01-30T17:52:14.954Z,98443.44
2023-01-30T17:54:43.067Z,98444.47
2023-01-30T17:57:15.864Z,98444.69
2023-01-30T17:59:44.148Z,98452.09
2023-01-30T18:02:16.347Z,98480.38
2023-01-30T18:04:44.833Z,98457.25
2023-01-30T18:07:16.971Z,98476.47
2023-01-30T18:09:45.063Z,98457.91
2023-01-30T18:12:13.490Z,98467.81
2023-01-30T18:14:41.131Z,98458.12
2023-01-30T18:17:10.650Z,98459.97
2023-01-30T18:19:41.542Z,98462.00
2023-01-30T18:22:10.032Z,98455.00
2023-01-30T18:24:38.232Z,98438.47
2023-01-30T18:27:07.034Z,98419.47
2023-01-30T18:29:36.124Z,98415.75
2023-01-30T18:32:06.330Z,98415.13
2023-01-30T18:34:38.553Z,98414.34
2023-01-30T18:37:07.119Z,98417.44
2023-01-30T18:39:39.976Z,98422.59
2023-01-30T18:42:10.184Z,98424.06
2023-01-30T18:44:39.123Z,98425.28
2023-01-30T18:47:07.705Z,98426.72
2023-01-30T18:49:36.320Z,98428.38
2023-01-30T18:52:04.763Z,98433.75
2023-01-30T18:54:33.804Z,98422.19
2023-01-30T18:57:02.797Z,98421.16
2023-01-30T18:59:31.700Z,98421.16
2023-01-30T19:01:59.991Z,98418.06
2023-01-30T19:04:29.128Z,98415.37
2023-01-30T19:06:57.649Z,98422.78
2023-01-30T19:09:27.599Z,98425.69
2023-01-30T19:12:16.368Z,98414.97
2023-01-30T19:14:44.975Z,98410.66
2023-01-30T19:17:16.232Z,98418.09
2023-01-30T19:19:47.000Z,98401.37
2023-01-30T19:22:17.262Z,98414.38
2023-01-30T19:24:46.396Z,98432.13
2023-01-30T19:27:14.594Z,98442.88
2023-01-30T19:29:44.785Z,98427.59
2023-01-30T19:32:14.115Z,98437.91
2023-01-30T19:34:44.126Z,98445.94
2023-01-30T19:37:13.698Z,98444.09
2023-01-30T19:39:41.646Z,98447.59
2023-01-30T19:42:11.764Z,98445.91
2023-01-30T19:44:41.228Z,98441.59
2023-01-30T19:47:09.846Z,98432.50
2023-01-30T19:49:38.214Z,98431.47
2023-01-30T19:52:07.507Z,98423.19
2023-01-30T19:54:36.549Z,98444.88
2023-01-30T19:57:05.554Z,98429.81
2023-01-30T19:59:39.244Z,98447.38
2023-01-30T20:02:10.808Z,98442.22
2023-01-30T20:04:40.353Z,98468.84
2023-01-30T20:07:08.684Z,98469.28
2023-01-30T20:09:38.866Z,98451.53
2023-01-30T20:12:08.392Z,98450.91
2023-01-30T20:14:37.468Z,98448.03
2023-01-30T20:17:07.592Z,98451.75
2023-01-30T20:19:36.298Z,98460.81
2023-01-30T20:22:08.904Z,98469.28
2023-01-30T20:24:39.514Z,98474.44
2023-01-30T20:27:07.897Z,98483.50
2023-01-30T20:29:36.404Z,98476.28
2023-01-30T20:32:05.622Z,98492.19
2023-01-30T20:34:35.145Z,98474.00
2023-01-30T20:37:03.367Z,98462.44
2023-01-30T20:39:31.797Z,98465.53
2023-01-30T20:42:00.307Z,98472.31
2023-01-30T20:44:31.045Z,98461.16
2023-01-30T20:46:59.909Z,98459.09
2023-01-30T20:49:27.974Z,98460.34
2023-01-30T20:51:57.169Z,98460.94
2023-01-30T20:54:24.997Z,98450.81
2023-01-30T20:56:54.032Z,98456.59
2023-01-30T20:59:24.865Z,98473.31
2023-01-30T21:01:53.953Z,98464.00
2023-01-30T21:04:24.827Z,98474.31
2023-01-30T21:06:52.812Z,98477.59
2023-01-30T21:09:23.222Z,98473.88
2023-01-30T21:11:53.555Z,98479.25
2023-01-30T21:14:21.885Z,98474.47
2023-01-30T21:16:49.512Z,98481.94
2023-01-30T21:19:17.675Z,98487.91
2023-01-30T21:21:51.867Z,98492.47
2023-01-30T21:24:23.942Z,98514.75
2023-01-30T21:26:53.850Z,98510.44
2023-01-30T21:29:24.981Z,98506.72
2023-01-30T21:31:53.188Z,98517.25
2023-01-30T21:34:20.637Z,98510.03
2023-01-30T21:37:08.735Z,98499.69
2023-01-30T21:39:55.390Z,98512.91
2023-01-30T21:42:41.609Z,98537.06
2023-01-30T21:45:09.363Z,98534.59
2023-01-30T21:47:36.987Z,98537.94
2023-01-30T21:50:04.695Z,98537.50
2023-01-30T21:52:33.500Z,98545.34
2023-01-30T21:55:01.139Z,98542.66
2023-01-30T21:57:28.288Z,98519.75
2023-01-30T21:59:55.753Z,98531.72
2023-01-30T22:02:22.477Z,98532.94
2023-01-30T22:04:49.753Z,98542.25
2023-01-30T22:07:16.872Z,98536.66
2023-01-30T22:09:43.944Z,98553.00
2023-01-30T22:12:11.045Z,98535.22
2023-01-30T22:14:38.747Z,98534.41
2023-01-30T22:17:06.058Z,98526.34
2023-01-30T22:19:35.697Z,98535.22
2023-01-30T22:22:03.757Z,98523.88
2023-01-30T22:24:31.320Z,98518.31
2023-01-30T22:26:58.593Z,98520.16
2023-01-30T22:29:25.497Z,98521.63
2023-01-30T22:31:52.994Z,98519.12
2023-01-30T22:34:19.845Z,98525.97
2023-01-30T22:36:50.872Z,98514.59
2023-01-30T22:39:18.005Z,98514.19
2023-01-30T22:41:45.137Z,98525.53
2023-01-30T22:44:12.234Z,98525.75
2023-01-30T22:46:40.423Z,98534.22
2023-01-30T22:49:09.510Z,98542.28
2023-01-30T22:51:39.569Z,98546.22
2023-01-30T22:54:10.545Z,98549.72
2023-01-30T22:56:40.814Z,98554.06
2023-01-30T22:59:09.067Z,98547.25
2023-01-30T23:01:41.640Z,98544.56
2023-01-30T23:04:20.618Z,98546.03
2023-01-30T23:06:48.815Z,98550.75
2023-01-30T23:09:19.812Z,98553.22
2023-01-30T23:12:13.953Z,98563.16
2023-01-30T23:14:42.660Z,98555.53
2023-01-30T23:17:28.532Z,98568.31
2023-01-30T23:19:56.002Z,98557.81
2023-01-30T23:22:23.273Z,98549.53
2023-01-30T23:24:51.333Z,98561.72
2023-01-30T23:27:19.931Z,98559.25
2023-01-30T23:29:46.754Z,98574.94
2023-01-30T23:32:15.302Z,98560.91
2023-01-30T23:34:42.455Z,98573.09
2023-01-30T23:37:10.075Z,98575.78
2023-01-30T23:39:36.884Z,98573.50
2023-01-30T23:42:04.380Z,98583.00
2023-01-30T23:44:31.187Z,98587.34
2023-01-30T23:46:58.638Z,98594.97
2023-01-30T23:49:25.481Z,98593.94
2023-01-30T23:51:52.886Z,98580.28
2023-01-30T23:54:20.024Z,98571.22
2023-01-30T23:56:47.214Z,98573.28
2023-01-30T23:59:14.342Z,98573.91
